Burnett, Washington
Current Conditions -  °F | °C
As of 6:29 PM on Wednesday 22 Oct 2014 (Local Time) from KTCM Reporting Station
Broken Clouds Broken Clouds  
Wind Chill: 55°   Ceiling: 8000
Heat Index: 55°   Visibility: 10mi
Dew Point: 54°   Wind: 10mph
Humidity: 94%   Direction: 150°SSE
Pressure: 29.58"   Gusts: NA
Location:  46.892°N, 121.738°W
Report Text: KTCM 230129Z AUTO 15009KT 10SM FEW065 BKN080 13/12 A2958 RMK AO2
Loading
Personal Weather Stations






























Interactive Weather Map
Tropical Storm Tracking
New forecast layout! Learn more

10-Day Weather Forecast

Advertisements
Track Severe Weather on mobile